sensor_id;sensor_type;location;lat;lon;timestamp;pressure;altitude;pressure_sealevel;temperature;humidity
79129;BME280;68529;43.286;23.360;2023-08-08T00:01:14;99057.06;;;19.50;63.84
79129;BME280;68529;43.286;23.360;2023-08-08T00:03:40;99057.06;;;19.50;63.89
79129;BME280;68529;43.286;23.360;2023-08-08T00:06:05;99069.63;;;19.48;63.58
79129;BME280;68529;43.286;23.360;2023-08-08T00:08:30;99066.22;;;19.46;63.90
79129;BME280;68529;43.286;23.360;2023-08-08T00:10:56;99071.75;;;19.43;63.81
79129;BME280;68529;43.286;23.360;2023-08-08T00:13:22;99061.09;;;19.43;64.09
79129;BME280;68529;43.286;23.360;2023-08-08T00:15:47;99077.09;;;19.43;63.94
79129;BME280;68529;43.286;23.360;2023-08-08T00:18:13;99071.97;;;19.40;63.98
79129;BME280;68529;43.286;23.360;2023-08-08T00:20:38;99074.66;;;19.40;63.96
79129;BME280;68529;43.286;23.360;2023-08-08T00:23:04;99062.31;;;19.39;63.54
79129;BME280;68529;43.286;23.360;2023-08-08T00:25:29;99066.88;;;19.37;63.56
79129;BME280;68529;43.286;23.360;2023-08-08T00:27:55;99070.50;;;19.36;63.46
79129;BME280;68529;43.286;23.360;2023-08-08T00:30:20;99073.03;;;19.38;63.60
79129;BME280;68529;43.286;23.360;2023-08-08T00:32:45;99074.31;;;19.32;63.98
79129;BME280;68529;43.286;23.360;2023-08-08T00:35:11;99070.06;;;19.30;63.49
79129;BME280;68529;43.286;23.360;2023-08-08T00:37:36;99074.53;;;19.29;63.76
79129;BME280;68529;43.286;23.360;2023-08-08T00:40:02;99081.06;;;19.25;63.72
79129;BME280;68529;43.286;23.360;2023-08-08T00:42:27;99076.69;;;19.24;63.82
79129;BME280;68529;43.286;23.360;2023-08-08T00:44:52;99087.34;;;19.24;63.81
79129;BME280;68529;43.286;23.360;2023-08-08T00:47:18;99085.44;;;19.26;63.62
79129;BME280;68529;43.286;23.360;2023-08-08T00:49:44;99088.22;;;19.25;63.62
79129;BME280;68529;43.286;23.360;2023-08-08T00:52:12;99098.75;;;19.26;63.25
79129;BME280;68529;43.286;23.360;2023-08-08T00:54:37;99104.53;;;19.20;63.50
79129;BME280;68529;43.286;23.360;2023-08-08T00:57:03;99103.03;;;19.16;63.48
79129;BME280;68529;43.286;23.360;2023-08-08T00:59:28;99107.41;;;19.17;63.55
79129;BME280;68529;43.286;23.360;2023-08-08T01:01:54;99102.72;;;19.08;63.18
79129;BME280;68529;43.286;23.360;2023-08-08T01:04:22;99098.06;;;18.99;63.31
79129;BME280;68529;43.286;23.360;2023-08-08T01:12:11;99101.00;;;19.07;63.51
79129;BME280;68529;43.286;23.360;2023-08-08T01:14:39;99098.34;;;19.07;63.09
79129;BME280;68529;43.286;23.360;2023-08-08T01:17:05;99107.84;;;19.11;62.91
79129;BME280;68529;43.286;23.360;2023-08-08T01:19:32;99104.84;;;19.15;62.97
79129;BME280;68529;43.286;23.360;2023-08-08T01:22:05;99109.34;;;19.15;63.09
79129;BME280;68529;43.286;23.360;2023-08-08T01:24:32;99112.72;;;19.17;63.50
79129;BME280;68529;43.286;23.360;2023-08-08T01:27:00;99112.59;;;19.18;63.53
79129;BME280;68529;43.286;23.360;2023-08-08T01:29:26;99121.66;;;19.16;63.62
79129;BME280;68529;43.286;23.360;2023-08-08T01:31:53;99128.72;;;19.17;63.59
79129;BME280;68529;43.286;23.360;2023-08-08T01:34:18;99136.78;;;19.15;63.57
79129;BME280;68529;43.286;23.360;2023-08-08T01:39:24;99137.22;;;19.22;63.72
79129;BME280;68529;43.286;23.360;2023-08-08T01:41:50;99134.44;;;19.24;63.39
79129;BME280;68529;43.286;23.360;2023-08-08T01:44:18;99133.59;;;19.23;63.20
79129;BME280;68529;43.286;23.360;2023-08-08T01:46:43;99140.75;;;19.23;63.61
79129;BME280;68529;43.286;23.360;2023-08-08T01:49:09;99147.66;;;19.25;63.42
79129;BME280;68529;43.286;23.360;2023-08-08T01:51:34;99156.38;;;19.27;63.40
79129;BME280;68529;43.286;23.360;2023-08-08T01:53:59;99164.50;;;19.26;63.45
79129;BME280;68529;43.286;23.360;2023-08-08T01:56:25;99170.69;;;19.26;63.59
79129;BME280;68529;43.286;23.360;2023-08-08T01:58:50;99169.91;;;19.24;63.71
79129;BME280;68529;43.286;23.360;2023-08-08T02:01:16;99157.56;;;19.23;63.67
79129;BME280;68529;43.286;23.360;2023-08-08T02:03:41;99164.91;;;19.19;63.40
79129;BME280;68529;43.286;23.360;2023-08-08T02:06:06;99171.09;;;19.20;63.64
79129;BME280;68529;43.286;23.360;2023-08-08T02:08:32;99164.78;;;19.21;63.73
79129;BME280;68529;43.286;23.360;2023-08-08T02:10:57;99161.06;;;19.24;63.54
79129;BME280;68529;43.286;23.360;2023-08-08T02:13:22;99162.03;;;19.23;63.41
79129;BME280;68529;43.286;23.360;2023-08-08T02:15:48;99167.25;;;19.24;63.47
79129;BME280;68529;43.286;23.360;2023-08-08T02:18:13;99168.44;;;19.20;63.26
79129;BME280;68529;43.286;23.360;2023-08-08T02:20:39;99177.38;;;19.19;63.54
79129;BME280;68529;43.286;23.360;2023-08-08T02:23:04;99175.66;;;19.18;63.27
79129;BME280;68529;43.286;23.360;2023-08-08T02:25:29;99191.63;;;19.18;63.61
79129;BME280;68529;43.286;23.360;2023-08-08T02:27:56;99195.38;;;19.15;63.47
79129;BME280;68529;43.286;23.360;2023-08-08T02:30:21;99202.28;;;19.18;63.57
79129;BME280;68529;43.286;23.360;2023-08-08T02:32:47;99207.53;;;19.19;63.44
79129;BME280;68529;43.286;23.360;2023-08-08T02:35:12;99210.19;;;19.19;63.26
79129;BME280;68529;43.286;23.360;2023-08-08T02:37:37;99201.13;;;19.22;63.35
79129;BME280;68529;43.286;23.360;2023-08-08T02:40:04;99188.16;;;19.17;63.77
79129;BME280;68529;43.286;23.360;2023-08-08T02:42:30;99188.03;;;19.19;63.79
79129;BME280;68529;43.286;23.360;2023-08-08T02:44:55;99188.97;;;19.18;63.91
79129;BME280;68529;43.286;23.360;2023-08-08T02:47:20;99197.94;;;19.17;64.23
79129;BME280;68529;43.286;23.360;2023-08-08T02:49:46;99212.00;;;19.19;64.00
79129;BME280;68529;43.286;23.360;2023-08-08T02:52:11;99207.19;;;19.24;63.74
79129;BME280;68529;43.286;23.360;2023-08-08T02:54:37;99202.06;;;19.21;63.99
79129;BME280;68529;43.286;23.360;2023-08-08T02:57:02;99202.19;;;19.19;64.02
79129;BME280;68529;43.286;23.360;2023-08-08T02:59:28;99194.22;;;19.19;63.97
79129;BME280;68529;43.286;23.360;2023-08-08T03:01:54;99190.81;;;19.17;63.83
79129;BME280;68529;43.286;23.360;2023-08-08T03:04:19;99195.28;;;19.17;63.97
79129;BME280;68529;43.286;23.360;2023-08-08T03:06:44;99207.94;;;19.13;64.00
79129;BME280;68529;43.286;23.360;2023-08-08T03:09:10;99210.81;;;19.10;63.95
79129;BME280;68529;43.286;23.360;2023-08-08T03:11:35;99215.28;;;19.10;64.34
79129;BME280;68529;43.286;23.360;2023-08-08T03:14:02;99222.22;;;19.12;64.37
79129;BME280;68529;43.286;23.360;2023-08-08T03:16:28;99231.81;;;19.15;63.97
79129;BME280;68529;43.286;23.360;2023-08-08T03:18:53;99230.97;;;19.14;63.88
79129;BME280;68529;43.286;23.360;2023-08-08T03:21:18;99232.53;;;19.04;63.96
79129;BME280;68529;43.286;23.360;2023-08-08T03:23:44;99244.91;;;19.05;64.01
79129;BME280;68529;43.286;23.360;2023-08-08T03:26:09;99238.44;;;19.09;63.81
79129;BME280;68529;43.286;23.360;2023-08-08T03:28:35;99236.50;;;19.11;63.79
79129;BME280;68529;43.286;23.360;2023-08-08T03:31:00;99220.75;;;19.08;64.18
79129;BME280;68529;43.286;23.360;2023-08-08T03:33:27;99221.25;;;19.13;64.36
79129;BME280;68529;43.286;23.360;2023-08-08T03:35:53;99216.78;;;19.14;63.75
79129;BME280;68529;43.286;23.360;2023-08-08T03:38:19;99219.66;;;19.11;63.75
79129;BME280;68529;43.286;23.360;2023-08-08T03:40:44;99220.31;;;19.14;63.37
79129;BME280;68529;43.286;23.360;2023-08-08T03:43:10;99225.53;;;19.16;63.30
79129;BME280;68529;43.286;23.360;2023-08-08T03:45:35;99234.38;;;19.16;63.38
79129;BME280;68529;43.286;23.360;2023-08-08T03:48:00;99237.88;;;19.17;63.28
79129;BME280;68529;43.286;23.360;2023-08-08T03:50:26;99227.97;;;19.19;63.55
79129;BME280;68529;43.286;23.360;2023-08-08T03:52:51;99224.38;;;19.20;63.54
79129;BME280;68529;43.286;23.360;2023-08-08T03:55:18;99226.03;;;19.21;63.48
79129;BME280;68529;43.286;23.360;2023-08-08T03:57:43;99216.38;;;19.20;63.47
79129;BME280;68529;43.286;23.360;2023-08-08T04:00:09;99218.06;;;19.21;63.70
79129;BME280;68529;43.286;23.360;2023-08-08T04:02:34;99217.53;;;19.16;63.67
79129;BME280;68529;43.286;23.360;2023-08-08T04:05:00;99219.25;;;19.17;63.68
79129;BME280;68529;43.286;23.360;2023-08-08T04:07:25;99220.41;;;19.13;63.81
79129;BME280;68529;43.286;23.360;2023-08-08T04:09:50;99235.44;;;19.14;63.96
79129;BME280;68529;43.286;23.360;2023-08-08T04:12:16;99223.84;;;19.15;63.78
79129;BME280;68529;43.286;23.360;2023-08-08T04:14:41;99231.28;;;19.23;63.25
79129;BME280;68529;43.286;23.360;2023-08-08T04:17:07;99232.66;;;19.28;63.36
79129;BME280;68529;43.286;23.360;2023-08-08T04:19:32;99243.31;;;19.28;63.75
79129;BME280;68529;43.286;23.360;2023-08-08T04:21:57;99243.09;;;19.31;63.73
79129;BME280;68529;43.286;23.360;2023-08-08T04:24:23;99253.75;;;19.31;63.94
79129;BME280;68529;43.286;23.360;2023-08-08T04:26:48;99265.28;;;19.32;63.70
79129;BME280;68529;43.286;23.360;2023-08-08T04:29:14;99262.91;;;19.27;64.04
79129;BME280;68529;43.286;23.360;2023-08-08T04:31:39;99270.59;;;19.32;64.08
79129;BME280;68529;43.286;23.360;2023-08-08T04:34:04;99266.09;;;19.32;64.03
79129;BME280;68529;43.286;23.360;2023-08-08T04:36:30;99266.66;;;19.37;63.76
79129;BME280;68529;43.286;23.360;2023-08-08T04:38:56;99266.97;;;19.33;63.50
79129;BME280;68529;43.286;23.360;2023-08-08T04:41:21;99255.06;;;19.38;63.25
79129;BME280;68529;43.286;23.360;2023-08-08T04:43:46;99247.25;;;19.23;62.43
79129;BME280;68529;43.286;23.360;2023-08-08T04:46:12;99247.66;;;19.29;63.09
79129;BME280;68529;43.286;23.360;2023-08-08T04:48:38;99250.34;;;19.29;63.21
79129;BME280;68529;43.286;23.360;2023-08-08T04:51:07;99262.28;;;19.36;63.46
79129;BME280;68529;43.286;23.360;2023-08-08T04:53:33;99264.00;;;19.37;63.81
79129;BME280;68529;43.286;23.360;2023-08-08T04:55:58;99269.53;;;19.34;63.83
79129;BME280;68529;43.286;23.360;2023-08-08T04:58:24;99268.28;;;19.40;63.90
79129;BME280;68529;43.286;23.360;2023-08-08T05:00:49;99278.72;;;19.43;63.59
79129;BME280;68529;43.286;23.360;2023-08-08T05:03:16;99280.31;;;19.45;63.62
79129;BME280;68529;43.286;23.360;2023-08-08T05:05:42;99282.78;;;19.48;64.04
79129;BME280;68529;43.286;23.360;2023-08-08T05:08:10;99284.47;;;19.49;64.13
79129;BME280;68529;43.286;23.360;2023-08-08T05:10:35;99278.91;;;19.52;64.18
79129;BME280;68529;43.286;23.360;2023-08-08T05:13:01;99280.63;;;19.53;64.43
79129;BME280;68529;43.286;23.360;2023-08-08T05:15:26;99278.69;;;19.55;64.05
79129;BME280;68529;43.286;23.360;2023-08-08T05:17:52;99269.75;;;19.56;63.87
79129;BME280;68529;43.286;23.360;2023-08-08T05:20:19;99274.88;;;19.59;63.63
79129;BME280;68529;43.286;23.360;2023-08-08T05:22:44;99279.22;;;19.60;64.04
79129;BME280;68529;43.286;23.360;2023-08-08T05:25:10;99282.66;;;19.62;63.58
79129;BME280;68529;43.286;23.360;2023-08-08T05:27:35;99287.88;;;19.64;63.33
79129;BME280;68529;43.286;23.360;2023-08-08T05:30:01;99289.03;;;19.60;63.53
79129;BME280;68529;43.286;23.360;2023-08-08T05:32:26;99292.25;;;19.65;63.37
79129;BME280;68529;43.286;23.360;2023-08-08T05:34:51;99299.16;;;19.67;63.80
79129;BME280;68529;43.286;23.360;2023-08-08T05:37:17;99302.06;;;19.64;63.46
79129;BME280;68529;43.286;23.360;2023-08-08T05:39:43;99301.41;;;19.61;63.83
79129;BME280;68529;43.286;23.360;2023-08-08T05:42:08;99315.78;;;19.71;63.72
79129;BME280;68529;43.286;23.360;2023-08-08T05:44:33;99314.44;;;20.02;63.43
79129;BME280;68529;43.286;23.360;2023-08-08T05:46:59;99316.75;;;20.31;63.19
79129;BME280;68529;43.286;23.360;2023-08-08T05:49:24;99331.25;;;20.64;62.45
79129;BME280;68529;43.286;23.360;2023-08-08T05:51:50;99327.59;;;20.88;61.69
79129;BME280;68529;43.286;23.360;2023-08-08T05:54:15;99336.41;;;21.02;61.18
79129;BME280;68529;43.286;23.360;2023-08-08T05:56:40;99334.16;;;21.19;60.99
79129;BME280;68529;43.286;23.360;2023-08-08T05:59:06;99341.03;;;21.34;59.78
79129;BME280;68529;43.286;23.360;2023-08-08T06:01:31;99339.97;;;21.48;59.94
79129;BME280;68529;43.286;23.360;2023-08-08T06:04:00;99341.69;;;21.71;59.56
79129;BME280;68529;43.286;23.360;2023-08-08T06:06:26;99338.03;;;21.83;58.14
79129;BME280;68529;43.286;23.360;2023-08-08T06:08:51;99338.94;;;21.95;57.61
79129;BME280;68529;43.286;23.360;2023-08-08T06:11:17;99340.16;;;22.13;57.81
79129;BME280;68529;43.286;23.360;2023-08-08T06:13:42;99346.94;;;22.28;55.47
79129;BME280;68529;43.286;23.360;2023-08-08T06:16:08;99343.03;;;22.43;54.54
79129;BME280;68529;43.286;23.360;2023-08-08T06:18:33;99353.56;;;22.56;54.20
79129;BME280;68529;43.286;23.360;2023-08-08T06:20:59;99352.88;;;22.65;54.42
79129;BME280;68529;43.286;23.360;2023-08-08T06:23:24;99348.31;;;22.77;54.61
79129;BME280;68529;43.286;23.360;2023-08-08T06:25:50;99348.16;;;22.89;53.51
79129;BME280;68529;43.286;23.360;2023-08-08T06:28:15;99342.50;;;23.03;52.80
79129;BME280;68529;43.286;23.360;2023-08-08T06:30:41;99341.72;;;23.12;52.26
79129;BME280;68529;43.286;23.360;2023-08-08T06:33:06;99345.13;;;23.14;50.67
79129;BME280;68529;43.286;23.360;2023-08-08T06:35:31;99344.50;;;22.90;49.19
79129;BME280;68529;43.286;23.360;2023-08-08T06:37:57;99350.06;;;22.98;50.64
79129;BME280;68529;43.286;23.360;2023-08-08T06:40:22;99354.91;;;23.04;48.54
79129;BME280;68529;43.286;23.360;2023-08-08T06:42:49;99356.44;;;22.97;50.92
79129;BME280;68529;43.286;23.360;2023-08-08T06:45:14;99368.88;;;23.19;50.28
79129;BME280;68529;43.286;23.360;2023-08-08T06:47:39;99358.50;;;23.14;47.09
79129;BME280;68529;43.286;23.360;2023-08-08T06:50:05;99354.41;;;23.10;47.37
79129;BME280;68529;43.286;23.360;2023-08-08T06:52:31;99357.50;;;23.27;49.41
79129;BME280;68529;43.286;23.360;2023-08-08T07:39:04;99388.91;;;23.98;48.20
79129;BME280;68529;43.286;23.360;2023-08-08T07:41:30;99384.84;;;24.03;47.12
79129;BME280;68529;43.286;23.360;2023-08-08T07:43:55;99387.00;;;24.09;48.17
79129;BME280;68529;43.286;23.360;2023-08-08T07:46:21;99387.75;;;24.21;48.68
79129;BME280;68529;43.286;23.360;2023-08-08T07:48:47;99384.31;;;24.40;47.98
79129;BME280;68529;43.286;23.360;2023-08-08T07:51:13;99385.03;;;24.51;47.90
79129;BME280;68529;43.286;23.360;2023-08-08T07:53:38;99382.22;;;24.62;46.64
79129;BME280;68529;43.286;23.360;2023-08-08T07:56:03;99380.69;;;24.69;46.84
79129;BME280;68529;43.286;23.360;2023-08-08T07:58:31;99389.78;;;24.78;45.87
79129;BME280;68529;43.286;23.360;2023-08-08T08:00:57;99390.09;;;24.84;45.77
79129;BME280;68529;43.286;23.360;2023-08-08T08:03:22;99385.84;;;24.92;46.49
79129;BME280;68529;43.286;23.360;2023-08-08T08:05:47;99386.16;;;24.98;45.85
79129;BME280;68529;43.286;23.360;2023-08-08T08:08:13;99387.59;;;25.12;46.52
79129;BME280;68529;43.286;23.360;2023-08-08T08:10:38;99383.91;;;25.22;45.66
79129;BME280;68529;43.286;23.360;2023-08-08T08:13:04;99384.47;;;25.26;45.11
79129;BME280;68529;43.286;23.360;2023-08-08T08:15:29;99382.03;;;25.32;44.77
79129;BME280;68529;43.286;23.360;2023-08-08T08:17:56;99384.59;;;25.34;45.16
79129;BME280;68529;43.286;23.360;2023-08-08T08:20:21;99387.31;;;25.15;44.67
79129;BME280;68529;43.286;23.360;2023-08-08T08:22:47;99394.94;;;25.19;44.93
79129;BME280;68529;43.286;23.360;2023-08-08T08:25:14;99381.06;;;25.14;44.86
79129;BME280;68529;43.286;23.360;2023-08-08T08:27:40;99387.69;;;24.91;45.18
79129;BME280;68529;43.286;23.360;2023-08-08T08:30:07;99387.28;;;25.05;44.25
79129;BME280;68529;43.286;23.360;2023-08-08T08:32:35;99376.53;;;25.24;43.81
79129;BME280;68529;43.286;23.360;2023-08-08T08:35:02;99375.53;;;25.44;43.64
79129;BME280;68529;43.286;23.360;2023-08-08T08:37:29;99375.81;;;25.61;44.08
79129;BME280;68529;43.286;23.360;2023-08-08T08:39:55;99375.06;;;25.78;42.17
79129;BME280;68529;43.286;23.360;2023-08-08T08:42:20;99372.09;;;25.90;42.26
79129;BME280;68529;43.286;23.360;2023-08-08T08:44:46;99380.13;;;26.00;41.59
79129;BME280;68529;43.286;23.360;2023-08-08T08:47:14;99378.69;;;26.05;41.00
79129;BME280;68529;43.286;23.360;2023-08-08T08:49:41;99377.66;;;26.16;40.56
79129;BME280;68529;43.286;23.360;2023-08-08T08:52:08;99371.31;;;26.17;40.23
79129;BME280;68529;43.286;23.360;2023-08-08T08:54:34;99377.53;;;26.18;41.21
79129;BME280;68529;43.286;23.360;2023-08-08T08:57:00;99371.78;;;26.30;40.84
79129;BME280;68529;43.286;23.360;2023-08-08T08:59:26;99367.22;;;26.40;40.12
79129;BME280;68529;43.286;23.360;2023-08-08T09:01:51;99365.03;;;26.26;40.11
79129;BME280;68529;43.286;23.360;2023-08-08T09:04:19;99364.56;;;26.31;40.21
79129;BME280;68529;43.286;23.360;2023-08-08T09:06:46;99359.28;;;26.39;40.03
79129;BME280;68529;43.286;23.360;2023-08-08T09:09:12;99368.59;;;26.44;40.22
79129;BME280;68529;43.286;23.360;2023-08-08T09:11:38;99365.72;;;26.55;38.86
79129;BME280;68529;43.286;23.360;2023-08-08T09:14:16;99370.31;;;26.45;39.67
79129;BME280;68529;43.286;23.360;2023-08-08T09:16:43;99363.72;;;26.57;39.67
79129;BME280;68529;43.286;23.360;2023-08-08T09:19:08;99357.88;;;26.62;37.71
79129;BME280;68529;43.286;23.360;2023-08-08T09:21:34;99359.13;;;26.68;37.56
79129;BME280;68529;43.286;23.360;2023-08-08T09:23:59;99366.59;;;26.74;37.83
79129;BME280;68529;43.286;23.360;2023-08-08T09:26:24;99358.34;;;26.85;37.41
79129;BME280;68529;43.286;23.360;2023-08-08T09:28:50;99368.50;;;26.63;37.55
79129;BME280;68529;43.286;23.360;2023-08-08T09:31:16;99368.31;;;26.47;37.32
79129;BME280;68529;43.286;23.360;2023-08-08T09:33:42;99371.81;;;26.57;37.36
79129;BME280;68529;43.286;23.360;2023-08-08T09:36:14;99363.28;;;26.62;36.85
79129;BME280;68529;43.286;23.360;2023-08-08T09:38:40;99360.53;;;26.72;37.10
79129;BME280;68529;43.286;23.360;2023-08-08T09:41:06;99363.84;;;26.83;36.21
79129;BME280;68529;43.286;23.360;2023-08-08T09:43:31;99364.50;;;26.95;37.03
79129;BME280;68529;43.286;23.360;2023-08-08T09:45:57;99360.56;;;27.07;36.84
79129;BME280;68529;43.286;23.360;2023-08-08T09:48:23;99361.31;;;27.17;36.96
79129;BME280;68529;43.286;23.360;2023-08-08T09:50:49;99365.81;;;27.26;36.51
79129;BME280;68529;43.286;23.360;2023-08-08T09:53:16;99354.09;;;27.35;36.81
79129;BME280;68529;43.286;23.360;2023-08-08T09:55:43;99356.31;;;27.40;36.31
79129;BME280;68529;43.286;23.360;2023-08-08T09:58:09;99365.63;;;27.28;36.14
79129;BME280;68529;43.286;23.360;2023-08-08T10:00:35;99356.06;;;27.33;35.60
79129;BME280;68529;43.286;23.360;2023-08-08T10:03:01;99353.06;;;27.36;35.91
79129;BME280;68529;43.286;23.360;2023-08-08T10:05:27;99354.19;;;27.43;35.74
79129;BME280;68529;43.286;23.360;2023-08-08T10:07:53;99345.16;;;27.52;35.39
79129;BME280;68529;43.286;23.360;2023-08-08T10:10:19;99346.50;;;27.56;36.22
79129;BME280;68529;43.286;23.360;2023-08-08T10:12:44;99347.28;;;27.66;36.05
79129;BME280;68529;43.286;23.360;2023-08-08T10:15:10;99345.31;;;27.77;35.71
79129;BME280;68529;43.286;23.360;2023-08-08T10:17:39;99347.69;;;27.80;35.83
79129;BME280;68529;43.286;23.360;2023-08-08T10:20:08;99357.63;;;27.36;35.78
79129;BME280;68529;43.286;23.360;2023-08-08T10:22:41;99345.78;;;27.46;34.82
79129;BME280;68529;43.286;23.360;2023-08-08T10:25:07;99339.09;;;27.58;35.55
79129;BME280;68529;43.286;23.360;2023-08-08T10:27:34;99329.06;;;27.68;35.08
79129;BME280;68529;43.286;23.360;2023-08-08T10:30:08;99341.44;;;27.79;36.18
79129;BME280;68529;43.286;23.360;2023-08-08T10:32:44;99338.25;;;27.84;36.29
79129;BME280;68529;43.286;23.360;2023-08-08T10:35:12;99337.63;;;27.90;36.37
79129;BME280;68529;43.286;23.360;2023-08-08T10:37:38;99338.38;;;28.00;35.45
79129;BME280;68529;43.286;23.360;2023-08-08T10:40:05;99331.25;;;27.99;34.82
79129;BME280;68529;43.286;23.360;2023-08-08T10:42:33;99331.34;;;27.89;35.29
79129;BME280;68529;43.286;23.360;2023-08-08T10:45:00;99322.41;;;27.55;36.13
79129;BME280;68529;43.286;23.360;2023-08-08T10:47:31;99331.09;;;27.66;36.28
79129;BME280;68529;43.286;23.360;2023-08-08T10:50:13;99315.59;;;27.77;36.11
79129;BME280;68529;43.286;23.360;2023-08-08T10:52:53;99322.91;;;27.84;35.62
79129;BME280;68529;43.286;23.360;2023-08-08T10:55:31;99318.03;;;27.88;36.22
79129;BME280;68529;43.286;23.360;2023-08-08T10:57:59;99322.31;;;27.98;35.48
79129;BME280;68529;43.286;23.360;2023-08-08T11:00:30;99321.31;;;27.99;35.29
79129;BME280;68529;43.286;23.360;2023-08-08T11:02:57;99323.53;;;28.04;35.42
79129;BME280;68529;43.286;23.360;2023-08-08T11:05:23;99318.44;;;28.01;35.70
79129;BME280;68529;43.286;23.360;2023-08-08T11:07:50;99324.22;;;28.06;34.75
79129;BME280;68529;43.286;23.360;2023-08-08T11:10:16;99323.94;;;28.17;35.34
79129;BME280;68529;43.286;23.360;2023-08-08T11:12:42;99322.25;;;28.16;34.25
79129;BME280;68529;43.286;23.360;2023-08-08T11:15:08;99319.25;;;28.19;34.41
79129;BME280;68529;43.286;23.360;2023-08-08T11:17:34;99320.91;;;28.20;35.61
79129;BME280;68529;43.286;23.360;2023-08-08T11:19:59;99317.16;;;28.05;34.88
79129;BME280;68529;43.286;23.360;2023-08-08T11:22:26;99321.28;;;27.91;34.48
79129;BME280;68529;43.286;23.360;2023-08-08T11:24:52;99323.97;;;27.65;35.50
79129;BME280;68529;43.286;23.360;2023-08-08T11:27:18;99321.53;;;27.80;35.19
79129;BME280;68529;43.286;23.360;2023-08-08T11:29:50;99316.72;;;27.92;35.76
79129;BME280;68529;43.286;23.360;2023-08-08T11:32:16;99317.06;;;27.97;35.43
79129;BME280;68529;43.286;23.360;2023-08-08T11:34:41;99318.19;;;28.12;34.15
79129;BME280;68529;43.286;23.360;2023-08-08T11:37:08;99319.25;;;28.19;34.90
79129;BME280;68529;43.286;23.360;2023-08-08T11:39:34;99321.94;;;28.19;35.13
79129;BME280;68529;43.286;23.360;2023-08-08T11:42:00;99320.88;;;28.12;34.86
79129;BME280;68529;43.286;23.360;2023-08-08T11:44:26;99318.50;;;28.09;34.72
79129;BME280;68529;43.286;23.360;2023-08-08T11:46:51;99316.53;;;28.19;34.74
79129;BME280;68529;43.286;23.360;2023-08-08T11:49:17;99309.56;;;28.08;33.20
79129;BME280;68529;43.286;23.360;2023-08-08T11:51:44;99315.66;;;27.85;34.99
79129;BME280;68529;43.286;23.360;2023-08-08T11:54:10;99317.72;;;27.91;34.65
79129;BME280;68529;43.286;23.360;2023-08-08T11:56:36;99314.19;;;27.98;33.75
79129;BME280;68529;43.286;23.360;2023-08-08T11:59:02;99316.00;;;27.90;34.34
79129;BME280;68529;43.286;23.360;2023-08-08T12:01:30;99309.13;;;27.95;35.08
79129;BME280;68529;43.286;23.360;2023-08-08T12:03:56;99309.13;;;27.95;34.98
79129;BME280;68529;43.286;23.360;2023-08-08T12:06:22;99298.97;;;27.89;33.61
79129;BME280;68529;43.286;23.360;2023-08-08T12:08:54;99301.16;;;27.86;35.31
79129;BME280;68529;43.286;23.360;2023-08-08T12:11:20;99299.09;;;27.80;35.48
79129;BME280;68529;43.286;23.360;2023-08-08T12:13:45;99305.03;;;27.83;34.01
79129;BME280;68529;43.286;23.360;2023-08-08T12:16:13;99302.97;;;27.77;34.86
79129;BME280;68529;43.286;23.360;2023-08-08T12:18:40;99300.09;;;27.79;35.12
79129;BME280;68529;43.286;23.360;2023-08-08T12:21:06;99301.25;;;27.76;34.41
79129;BME280;68529;43.286;23.360;2023-08-08T12:23:33;99292.25;;;27.67;34.77
79129;BME280;68529;43.286;23.360;2023-08-08T12:25:59;99296.31;;;27.63;36.10
79129;BME280;68529;43.286;23.360;2023-08-08T12:28:26;99287.50;;;27.61;34.95
79129;BME280;68529;43.286;23.360;2023-08-08T12:30:51;99295.22;;;27.56;34.22
79129;BME280;68529;43.286;23.360;2023-08-08T12:33:17;99291.13;;;27.44;33.67
79129;BME280;68529;43.286;23.360;2023-08-08T12:35:42;99294.13;;;27.41;35.13
79129;BME280;68529;43.286;23.360;2023-08-08T12:38:08;99284.78;;;27.36;35.34
79129;BME280;68529;43.286;23.360;2023-08-08T12:40:33;99283.03;;;27.27;35.20
79129;BME280;68529;43.286;23.360;2023-08-08T12:42:59;99285.56;;;27.28;34.98
79129;BME280;68529;43.286;23.360;2023-08-08T12:45:24;99289.28;;;27.27;34.96
79129;BME280;68529;43.286;23.360;2023-08-08T12:47:50;99286.59;;;27.27;34.94
79129;BME280;68529;43.286;23.360;2023-08-08T12:50:15;99284.56;;;27.29;34.50
79129;BME280;68529;43.286;23.360;2023-08-08T12:52:41;99283.47;;;27.22;34.43
79129;BME280;68529;43.286;23.360;2023-08-08T12:55:07;99281.81;;;27.21;34.50
79129;BME280;68529;43.286;23.360;2023-08-08T12:57:33;99286.44;;;27.11;34.40
79129;BME280;68529;43.286;23.360;2023-08-08T12:59:59;99278.75;;;26.98;35.24
79129;BME280;68529;43.286;23.360;2023-08-08T13:02:24;99276.19;;;26.97;34.93
79129;BME280;68529;43.286;23.360;2023-08-08T13:04:49;99270.44;;;26.92;35.57
79129;BME280;68529;43.286;23.360;2023-08-08T13:07:15;99274.16;;;26.91;35.38
79129;BME280;68529;43.286;23.360;2023-08-08T13:09:41;99270.81;;;26.97;35.66
79129;BME280;68529;43.286;23.360;2023-08-08T13:12:06;99274.53;;;26.96;35.00
79129;BME280;68529;43.286;23.360;2023-08-08T13:14:32;99271.97;;;26.94;35.39
79129;BME280;68529;43.286;23.360;2023-08-08T13:16:58;99266.25;;;26.97;36.12
79129;BME280;68529;43.286;23.360;2023-08-08T13:19:23;99265.97;;;27.00;35.99
79129;BME280;68529;43.286;23.360;2023-08-08T13:21:51;99266.66;;;27.02;36.70
79129;BME280;68529;43.286;23.360;2023-08-08T13:24:17;99275.28;;;27.06;36.10
79129;BME280;68529;43.286;23.360;2023-08-08T13:26:43;99275.75;;;27.01;35.70
79129;BME280;68529;43.286;23.360;2023-08-08T13:29:09;99273.06;;;27.01;34.71
79129;BME280;68529;43.286;23.360;2023-08-08T13:31:34;99273.00;;;26.93;34.36
79129;BME280;68529;43.286;23.360;2023-08-08T13:34:00;99279.53;;;26.91;36.28
79129;BME280;68529;43.286;23.360;2023-08-08T13:36:25;99268.03;;;26.89;35.46